Kelowna, Canada
Current Conditions -  °F | °C
As of 4:05 PM on Friday 31 Oct 2014 (Local Time) from CYLW Reporting Station
Moderate Rain Moderate Rain  
Wind Chill: 10°   Ceiling: 1900
Heat Index: 10°   Visibility: 3mi
Dew Point:   Wind: 2mph
Humidity: 94%   Direction: NA
Pressure: 29.7"   Gusts: NA
Location:  49.89°N, 119.5°W
Report Text: CYLW 312305Z AUTO VRB02KT 3SM RA BR BKN019 OVC031 10/09 A2970 RMK SLP062
Loading
Personal Weather Stations






























Interactive Weather Map
Tropical Storm Tracking
New forecast layout! Learn more

10-Day Weather Forecast

Advertisements
Track Severe Weather on mobile